createdAt,value
2023-08-09T00:01:14.743Z,35.65
2023-08-09T00:03:41.470Z,35.78
2023-08-09T00:06:08.154Z,36.11
2023-08-09T00:08:34.950Z,35.94
2023-08-09T00:11:01.727Z,36.56
2023-08-09T00:13:28.480Z,36.84
2023-08-09T00:15:55.171Z,36.08
2023-08-09T00:18:21.962Z,36.83
2023-08-09T00:20:50.289Z,36.63
2023-08-09T00:23:17.801Z,36.74
2023-08-09T00:25:44.584Z,37.00
2023-08-09T00:28:11.356Z,36.99
2023-08-09T00:30:38.079Z,36.02
2023-08-09T00:33:05.135Z,36.79
2023-08-09T00:35:32.443Z,36.10
2023-08-09T00:37:59.101Z,36.56
2023-08-09T00:40:25.890Z,36.93
2023-08-09T00:42:52.618Z,36.70
2023-08-09T00:45:19.315Z,36.58
2023-08-09T00:47:46.068Z,36.52
2023-08-09T00:50:13.052Z,36.03
2023-08-09T00:52:39.782Z,36.41
2023-08-09T00:55:06.962Z,35.98
2023-08-09T00:57:33.588Z,36.86
2023-08-09T01:00:00.352Z,35.91
2023-08-09T01:02:27.238Z,35.90
2023-08-09T01:04:54.083Z,36.83
2023-08-09T01:07:49.074Z,36.58
2023-08-09T01:10:20.657Z,36.84
2023-08-09T01:13:06.962Z,36.78
2023-08-09T01:15:34.658Z,35.91
2023-08-09T01:18:01.720Z,36.79
2023-08-09T01:20:28.767Z,36.71
2023-08-09T01:23:04.141Z,36.53
2023-08-09T01:25:32.038Z,35.86
2023-08-09T01:27:59.172Z,36.07
2023-08-09T01:30:26.154Z,36.08
2023-08-09T01:32:53.122Z,36.46
2023-08-09T01:35:19.821Z,36.48
2023-08-09T01:37:57.314Z,36.79
2023-08-09T01:40:24.075Z,35.73
2023-08-09T01:42:52.505Z,35.81
2023-08-09T01:45:19.291Z,36.15
2023-08-09T01:47:46.064Z,36.43
2023-08-09T01:50:26.244Z,36.67
2023-08-09T01:52:57.217Z,35.74
2023-08-09T01:55:26.778Z,36.58
2023-08-09T01:57:54.412Z,36.38
2023-08-09T02:00:21.296Z,35.91
2023-08-09T02:02:48.723Z,36.25
2023-08-09T02:05:15.558Z,36.04
2023-08-09T02:07:42.301Z,36.14
2023-08-09T02:10:10.454Z,36.14
2023-08-09T02:12:40.937Z,35.67
2023-08-09T02:15:08.094Z,35.62
2023-08-09T02:17:35.386Z,35.92
2023-08-09T02:20:02.391Z,36.28
2023-08-09T02:22:38.223Z,36.70
2023-08-09T02:25:05.474Z,36.37
2023-08-09T02:27:32.152Z,36.73
2023-08-09T02:29:58.763Z,36.83
2023-08-09T02:32:25.539Z,35.74
2023-08-09T02:34:52.347Z,36.31
2023-08-09T02:37:19.011Z,36.75
2023-08-09T02:39:46.364Z,36.35
2023-08-09T02:42:12.978Z,35.59
2023-08-09T02:44:40.019Z,35.84
2023-08-09T02:47:06.648Z,36.25
2023-08-09T02:49:33.484Z,35.90
2023-08-09T02:52:00.548Z,36.23
2023-08-09T02:54:27.298Z,36.17
2023-08-09T02:56:54.012Z,37.04
2023-08-09T02:59:20.828Z,36.36
2023-08-09T03:01:48.088Z,36.97
2023-08-09T03:04:14.844Z,37.06
2023-08-09T03:06:41.556Z,36.41
2023-08-09T03:09:08.256Z,36.86
2023-08-09T03:11:34.935Z,37.25
2023-08-09T03:14:01.646Z,37.21
2023-08-09T03:16:28.464Z,36.36
2023-08-09T03:18:55.178Z,37.04
2023-08-09T03:21:22.138Z,36.72
2023-08-09T03:23:49.405Z,37.43
2023-08-09T03:26:16.574Z,36.56
2023-08-09T03:28:44.692Z,36.78
2023-08-09T03:31:11.521Z,36.47
2023-08-09T03:33:38.669Z,37.64
2023-08-09T03:36:07.074Z,37.55
2023-08-09T03:38:33.801Z,37.28
2023-08-09T03:41:00.728Z,37.45
2023-08-09T03:43:27.591Z,36.56
2023-08-09T03:45:54.308Z,37.58
2023-08-09T03:48:21.057Z,37.36
2023-08-09T03:50:47.726Z,36.73
2023-08-09T03:53:14.557Z,37.60
2023-08-09T03:55:41.871Z,37.33
2023-08-09T03:58:08.496Z,36.77
2023-08-09T04:00:35.211Z,37.88
2023-08-09T04:03:02.068Z,36.88
2023-08-09T04:05:29.897Z,36.88
2023-08-09T04:07:57.697Z,37.59
2023-08-09T04:10:24.324Z,36.98
2023-08-09T04:12:51.602Z,38.02
2023-08-09T04:15:18.327Z,37.97
2023-08-09T04:17:45.664Z,37.63
2023-08-09T04:20:13.474Z,37.96
2023-08-09T04:22:40.363Z,37.25
2023-08-09T04:25:07.553Z,38.33
2023-08-09T04:27:34.728Z,38.27
2023-08-09T04:30:02.460Z,37.97
2023-08-09T04:32:29.872Z,38.40
2023-08-09T04:34:56.612Z,38.42
2023-08-09T04:37:24.991Z,38.44
2023-08-09T04:39:53.473Z,37.46
2023-08-09T04:42:20.470Z,38.53
2023-08-09T04:44:47.166Z,38.59
2023-08-09T04:47:13.853Z,37.49
2023-08-09T04:49:40.539Z,37.87
2023-08-09T04:52:07.709Z,38.17
2023-08-09T04:54:34.385Z,38.20
2023-08-09T04:57:01.311Z,37.93
2023-08-09T04:59:28.268Z,38.74
2023-08-09T05:01:55.621Z,38.45
2023-08-09T05:04:22.431Z,38.78
2023-08-09T05:06:49.114Z,38.16
2023-08-09T05:09:15.853Z,37.80
2023-08-09T05:11:42.798Z,38.53
2023-08-09T05:14:09.490Z,38.51
2023-08-09T05:16:36.403Z,38.84
2023-08-09T05:19:03.173Z,38.18
2023-08-09T05:21:29.852Z,38.51
2023-08-09T05:23:56.514Z,38.38
2023-08-09T05:26:23.265Z,37.84
2023-08-09T05:28:51.142Z,39.06
2023-08-09T05:31:18.005Z,37.88
2023-08-09T05:33:44.756Z,38.53
2023-08-09T05:36:11.450Z,37.83
2023-08-09T05:38:38.198Z,38.98
2023-08-09T05:41:04.818Z,38.87
2023-08-09T05:43:31.473Z,37.95
2023-08-09T05:45:58.202Z,38.99
2023-08-09T05:48:24.957Z,38.36
2023-08-09T05:50:51.689Z,38.71
2023-08-09T05:53:18.328Z,38.65
2023-08-09T05:55:45.097Z,38.87
2023-08-09T05:58:12.087Z,39.15
2023-08-09T06:00:39.026Z,39.09
2023-08-09T06:03:05.947Z,38.41
2023-08-09T06:05:32.823Z,39.21
2023-08-09T06:07:59.555Z,38.57
2023-08-09T06:10:26.775Z,38.08
2023-08-09T06:12:54.094Z,39.15
2023-08-09T06:15:21.461Z,38.58
2023-08-09T06:17:48.380Z,38.16
2023-08-09T06:20:15.190Z,38.26
2023-08-09T06:22:42.394Z,38.62
2023-08-09T06:25:09.995Z,38.84
2023-08-09T06:27:36.996Z,38.88
2023-08-09T06:30:04.276Z,39.46
2023-08-09T06:32:31.017Z,38.38
2023-08-09T06:34:57.975Z,38.26
2023-08-09T06:37:24.675Z,39.11
2023-08-09T06:39:51.685Z,39.38
2023-08-09T06:42:18.534Z,39.05
2023-08-09T06:44:45.271Z,39.13
2023-08-09T06:47:12.373Z,38.84
2023-08-09T06:49:39.113Z,39.30
2023-08-09T06:52:06.054Z,39.10
2023-08-09T06:54:33.023Z,38.75
2023-08-09T06:56:59.979Z,39.34
2023-08-09T06:59:26.660Z,39.16
2023-08-09T07:01:53.462Z,39.30
2023-08-09T07:04:20.344Z,39.11
2023-08-09T07:06:47.269Z,38.99
2023-08-09T07:09:15.186Z,39.60
2023-08-09T07:11:41.937Z,38.98
2023-08-09T07:14:08.569Z,40.03
2023-08-09T07:16:35.291Z,40.09
2023-08-09T07:19:01.953Z,39.86
2023-08-09T07:21:29.484Z,40.02
2023-08-09T07:23:58.289Z,40.13
2023-08-09T07:26:25.495Z,40.12
2023-08-09T07:28:52.244Z,39.37
2023-08-09T07:31:20.518Z,40.22
2023-08-09T07:33:48.341Z,39.37
2023-08-09T07:36:15.127Z,40.22
2023-08-09T07:38:41.904Z,40.14
2023-08-09T07:41:08.689Z,40.40
2023-08-09T07:43:35.366Z,39.71
2023-08-09T07:46:05.206Z,39.42
2023-08-09T07:48:32.154Z,39.63
2023-08-09T07:50:58.909Z,39.73
2023-08-09T07:53:25.519Z,39.65
2023-08-09T07:55:52.540Z,40.59
2023-08-09T07:58:19.282Z,39.55
2023-08-09T08:00:50.321Z,39.68
2023-08-09T08:03:18.124Z,40.33
2023-08-09T08:05:46.579Z,39.59
2023-08-09T08:08:16.277Z,39.59
2023-08-09T08:10:43.419Z,40.75
2023-08-09T08:13:10.487Z,40.70
2023-08-09T08:15:38.498Z,39.72
2023-08-09T08:18:05.956Z,39.79
2023-08-09T08:20:33.997Z,39.71
2023-08-09T08:23:01.312Z,39.73
2023-08-09T08:25:28.312Z,39.81
2023-08-09T08:27:55.031Z,40.66
2023-08-09T08:30:24.452Z,40.05
2023-08-09T08:32:52.555Z,40.55
2023-08-09T08:35:23.202Z,40.42
2023-08-09T08:37:50.534Z,40.25
2023-08-09T08:40:22.187Z,39.43
2023-08-09T08:42:49.270Z,40.44
2023-08-09T08:45:16.541Z,39.54
2023-08-09T08:47:44.559Z,39.88
2023-08-09T08:50:11.974Z,39.69
2023-08-09T08:52:40.297Z,39.52
2023-08-09T08:55:08.218Z,39.58
2023-08-09T08:57:35.009Z,40.22
2023-08-09T09:00:06.871Z,40.04
2023-08-09T09:02:37.128Z,40.07
2023-08-09T09:05:04.318Z,41.90
2023-08-09T09:07:31.122Z,40.86
2023-08-09T09:10:01.178Z,41.44
2023-08-09T09:12:28.001Z,41.79
2023-08-09T09:14:54.646Z,41.92
2023-08-09T09:17:21.587Z,41.48
2023-08-09T09:19:48.668Z,40.89
2023-08-09T09:22:32.267Z,40.99
2023-08-09T09:25:00.090Z,41.72
2023-08-09T09:27:35.104Z,41.37
2023-08-09T09:30:07.383Z,41.54
2023-08-09T09:32:35.341Z,40.65
2023-08-09T09:35:02.127Z,40.98
2023-08-09T09:37:30.217Z,41.08
2023-08-09T09:39:57.044Z,40.95
2023-08-09T09:42:33.522Z,40.38
2023-08-09T09:45:07.166Z,40.82
2023-08-09T09:47:41.002Z,40.76
2023-08-09T09:50:09.063Z,40.47
2023-08-09T09:52:38.893Z,40.92
2023-08-09T09:55:07.118Z,40.34
2023-08-09T09:57:34.409Z,40.89
2023-08-09T10:00:01.455Z,40.23
2023-08-09T10:02:46.082Z,40.26
2023-08-09T10:05:12.957Z,40.92
2023-08-09T10:07:40.074Z,41.20
2023-08-09T10:10:07.208Z,41.10
2023-08-09T10:12:34.614Z,40.39
2023-08-09T10:15:01.824Z,40.59
2023-08-09T10:17:29.793Z,40.59
2023-08-09T10:19:58.350Z,40.52
2023-08-09T10:22:26.781Z,40.63
2023-08-09T10:24:58.122Z,41.11
2023-08-09T10:27:50.938Z,41.15
2023-08-09T10:30:26.435Z,39.96
2023-08-09T10:32:57.529Z,41.15
2023-08-09T10:35:50.092Z,40.74
2023-08-09T10:38:23.409Z,40.17
2023-08-09T10:40:53.039Z,40.13
2023-08-09T10:43:24.577Z,41.12
2023-08-09T10:45:53.501Z,40.85
2023-08-09T10:48:26.867Z,39.81
2023-08-09T10:51:05.298Z,40.37
2023-08-09T10:53:32.002Z,40.87
2023-08-09T10:55:59.458Z,40.83
2023-08-09T10:58:31.998Z,40.32
2023-08-09T11:00:58.750Z,40.84
2023-08-09T11:03:25.705Z,39.60
2023-08-09T11:05:53.280Z,39.76
2023-08-09T11:08:22.294Z,40.56
2023-08-09T11:10:49.593Z,40.11
2023-08-09T11:13:17.782Z,40.39
2023-08-09T11:15:48.395Z,39.46
2023-08-09T11:18:15.922Z,40.37
2023-08-09T11:20:42.844Z,40.63
2023-08-09T11:23:12.448Z,39.47
2023-08-09T11:25:39.704Z,39.62
2023-08-09T11:28:08.402Z,40.11
2023-08-09T11:30:35.196Z,40.53
2023-08-09T11:33:08.182Z,40.81
2023-08-09T11:35:45.309Z,40.57
2023-08-09T11:38:15.036Z,40.93
2023-08-09T11:40:52.920Z,41.04
2023-08-09T11:43:21.504Z,40.54
2023-08-09T11:45:55.301Z,41.13
2023-08-09T11:48:27.112Z,39.84
2023-08-09T11:51:13.627Z,40.15
2023-08-09T11:53:41.064Z,40.14
2023-08-09T11:56:09.230Z,40.64
2023-08-09T11:58:36.941Z,40.12
2023-08-09T12:01:14.687Z,40.69
2023-08-09T12:03:41.745Z,41.28
2023-08-09T12:06:08.688Z,41.32
2023-08-09T12:08:38.687Z,40.50
2023-08-09T12:11:05.503Z,40.88
2023-08-09T12:13:32.634Z,40.41
2023-08-09T12:15:59.443Z,41.04
2023-08-09T12:18:26.326Z,41.00
2023-08-09T12:20:53.160Z,40.81
2023-08-09T12:23:19.799Z,41.44
2023-08-09T12:25:46.576Z,41.43
2023-08-09T12:28:13.369Z,41.32
2023-08-09T12:30:41.337Z,41.02
2023-08-09T12:33:09.895Z,41.55
2023-08-09T12:35:36.823Z,41.14
2023-08-09T12:38:03.650Z,41.25
2023-08-09T12:40:30.433Z,41.89
2023-08-09T12:42:57.612Z,41.25
2023-08-09T12:45:24.510Z,41.60
2023-08-09T12:47:51.379Z,42.00
2023-08-09T12:50:18.295Z,42.06
2023-08-09T12:52:47.259Z,42.16
2023-08-09T12:55:19.098Z,41.29
2023-08-09T12:57:47.318Z,42.13
2023-08-09T13:00:15.005Z,41.50
2023-08-09T13:02:41.818Z,41.44
2023-08-09T13:05:09.660Z,42.19
2023-08-09T13:07:36.427Z,41.46
2023-08-09T13:10:04.110Z,42.32
2023-08-09T13:12:30.926Z,41.75
2023-08-09T13:14:57.601Z,42.29
2023-08-09T13:17:24.239Z,41.81
2023-08-09T13:19:50.946Z,41.79
2023-08-09T13:22:17.618Z,41.65
2023-08-09T13:24:46.228Z,42.26
2023-08-09T13:27:13.826Z,41.62
2023-08-09T13:29:40.482Z,42.46
2023-08-09T13:32:07.417Z,41.71
2023-08-09T13:34:35.984Z,42.15
2023-08-09T13:37:02.620Z,42.31
2023-08-09T13:39:31.278Z,42.37
2023-08-09T13:41:58.595Z,42.63
2023-08-09T13:44:25.682Z,41.71
2023-08-09T13:46:52.379Z,41.95
2023-08-09T13:49:19.204Z,41.93
2023-08-09T13:51:45.894Z,42.87
2023-08-09T13:54:12.623Z,42.47
2023-08-09T13:56:39.347Z,42.14
2023-08-09T13:59:06.022Z,42.81
2023-08-09T14:01:34.888Z,42.33
2023-08-09T14:04:01.674Z,42.98
2023-08-09T14:06:28.323Z,42.67
2023-08-09T14:08:55.028Z,42.79
2023-08-09T14:11:21.764Z,43.23
2023-08-09T14:13:49.159Z,43.08
2023-08-09T14:16:15.889Z,43.03
2023-08-09T14:18:42.875Z,42.66
2023-08-09T14:21:10.345Z,43.11
2023-08-09T14:23:40.243Z,42.78
2023-08-09T14:26:07.357Z,42.44
2023-08-09T14:28:34.052Z,42.30
2023-08-09T14:31:00.812Z,42.34
2023-08-09T14:33:28.541Z,43.08
2023-08-09T14:35:57.260Z,42.57
2023-08-09T14:38:24.421Z,42.65
2023-08-09T14:40:51.139Z,42.58
2023-08-09T14:43:17.855Z,43.01
2023-08-09T14:45:45.488Z,42.07
2023-08-09T14:48:12.324Z,42.25
2023-08-09T14:50:40.339Z,42.23
2023-08-09T14:53:10.077Z,42.82
2023-08-09T14:55:36.836Z,42.11
2023-08-09T14:58:03.543Z,42.97
2023-08-09T15:00:33.901Z,42.33
2023-08-09T15:03:01.214Z,42.48
2023-08-09T15:05:28.008Z,42.31
2023-08-09T15:07:55.307Z,42.70
2023-08-09T15:10:22.166Z,42.72
2023-08-09T15:12:48.883Z,42.41
2023-08-09T15:15:15.784Z,42.11
2023-08-09T15:17:42.643Z,42.01
2023-08-09T15:20:12.464Z,42.38
2023-08-09T15:22:39.656Z,42.42
2023-08-09T15:25:16.743Z,42.57
2023-08-09T15:27:44.182Z,41.86
2023-08-09T15:30:11.534Z,42.38
2023-08-09T15:32:38.212Z,41.89
2023-08-09T15:35:05.583Z,42.26
2023-08-09T15:37:33.297Z,42.03
2023-08-09T15:39:59.968Z,42.24
2023-08-09T15:42:26.612Z,42.61
2023-08-09T15:44:53.262Z,42.52
2023-08-09T15:47:20.079Z,41.83
2023-08-09T15:49:48.653Z,41.75
2023-08-09T15:52:17.666Z,42.46
2023-08-09T15:54:44.544Z,42.63
2023-08-09T15:57:11.222Z,41.94
2023-08-09T15:59:37.876Z,42.02
2023-08-09T16:02:04.585Z,41.91
2023-08-09T16:04:31.331Z,42.68
2023-08-09T16:06:57.989Z,42.26
2023-08-09T16:09:25.281Z,42.43
2023-08-09T16:11:51.965Z,42.09
2023-08-09T16:14:18.662Z,42.00
2023-08-09T16:16:45.399Z,42.03
2023-08-09T16:19:12.176Z,41.76
2023-08-09T16:21:38.860Z,41.73
2023-08-09T16:24:05.580Z,41.67
2023-08-09T16:26:35.083Z,42.54
2023-08-09T16:29:06.494Z,42.44
2023-08-09T16:31:33.214Z,42.26
2023-08-09T16:33:59.894Z,42.76
2023-08-09T16:36:26.648Z,42.52
2023-08-09T16:38:53.351Z,41.99
2023-08-09T16:41:20.016Z,42.37
2023-08-09T16:43:46.738Z,42.54
2023-08-09T16:46:13.434Z,41.91
2023-08-09T16:48:40.099Z,41.96
2023-08-09T16:51:06.759Z,42.16
2023-08-09T16:53:33.384Z,41.88
2023-08-09T16:56:00.018Z,41.76
2023-08-09T16:58:27.224Z,42.11
2023-08-09T17:00:53.875Z,41.95
2023-08-09T17:03:20.812Z,41.95
2023-08-09T17:05:47.588Z,41.84
2023-08-09T17:08:15.110Z,42.04
2023-08-09T17:10:41.817Z,42.04
2023-08-09T17:13:08.558Z,41.96
2023-08-09T17:15:35.278Z,41.96
2023-08-09T17:18:02.046Z,41.86
2023-08-09T17:20:28.818Z,41.89
2023-08-09T17:22:55.555Z,41.81
2023-08-09T17:25:22.265Z,41.85
2023-08-09T17:27:49.018Z,42.28
2023-08-09T17:30:15.649Z,41.73
2023-08-09T17:32:42.394Z,41.77
2023-08-09T17:35:09.861Z,41.68
2023-08-09T17:37:36.625Z,41.85
2023-08-09T17:40:03.489Z,41.86
2023-08-09T17:42:30.162Z,41.98
2023-08-09T17:44:59.203Z,41.86
2023-08-09T17:47:25.888Z,41.79
2023-08-09T17:49:52.598Z,41.94
2023-08-09T17:52:19.287Z,41.81
2023-08-09T17:54:46.055Z,41.87
2023-08-09T17:57:12.775Z,41.72
2023-08-09T17:59:39.473Z,41.82
2023-08-09T18:02:07.096Z,41.82
2023-08-09T18:04:33.825Z,41.79
2023-08-09T18:07:00.504Z,41.88
2023-08-09T18:09:27.173Z,41.63
2023-08-09T18:11:54.330Z,41.65
2023-08-09T18:14:21.076Z,41.76
2023-08-09T18:16:49.780Z,41.91
2023-08-09T18:19:17.920Z,41.86
2023-08-09T18:21:44.850Z,41.95
2023-08-09T18:24:11.737Z,42.17
2023-08-09T18:26:38.447Z,42.03
2023-08-09T18:29:05.109Z,42.03
2023-08-09T18:31:31.815Z,41.92
2023-08-09T18:33:58.579Z,41.94
2023-08-09T18:36:25.266Z,41.78
2023-08-09T18:38:52.495Z,41.71
2023-08-09T18:41:20.248Z,41.93
2023-08-09T18:43:46.962Z,41.85
2023-08-09T18:46:13.686Z,41.98
2023-08-09T18:48:40.494Z,41.97
2023-08-09T18:51:07.562Z,41.98
2023-08-09T18:53:34.306Z,41.86
2023-08-09T18:56:01.186Z,41.52
2023-08-09T18:58:27.917Z,41.49
2023-08-09T19:00:54.608Z,41.49
2023-08-09T19:03:21.382Z,41.47
2023-08-09T19:05:48.525Z,41.53
2023-08-09T19:08:15.256Z,41.22
2023-08-09T19:10:41.865Z,41.61
2023-08-09T19:13:09.524Z,41.30
2023-08-09T19:15:38.660Z,41.21
2023-08-09T19:18:05.878Z,41.41
2023-08-09T19:20:32.565Z,41.43
2023-08-09T19:23:00.794Z,41.37
2023-08-09T19:25:27.548Z,41.28
2023-08-09T19:27:54.336Z,41.06
2023-08-09T19:30:21.163Z,41.04
2023-08-09T19:32:47.863Z,41.31
2023-08-09T19:35:17.287Z,41.21
2023-08-09T19:37:44.302Z,41.04
2023-08-09T19:40:12.010Z,41.07
2023-08-09T19:42:39.366Z,41.20
2023-08-09T19:45:06.573Z,41.37
2023-08-09T19:47:33.400Z,40.63
2023-08-09T19:50:00.151Z,40.72
2023-08-09T19:52:26.850Z,40.89
2023-08-09T19:54:53.568Z,40.76
2023-08-09T19:57:20.391Z,41.09
2023-08-09T19:59:47.206Z,40.60
2023-08-09T20:02:14.103Z,40.67
2023-08-09T20:04:41.773Z,40.65
2023-08-09T20:07:08.544Z,40.69
2023-08-09T20:09:36.202Z,40.46
2023-08-09T20:12:03.435Z,41.13
2023-08-09T20:14:30.112Z,40.75
2023-08-09T20:16:57.170Z,40.57
2023-08-09T20:19:23.897Z,40.84
2023-08-09T20:21:50.604Z,40.82
2023-08-09T20:24:40.686Z,40.39
2023-08-09T20:27:08.053Z,40.51
2023-08-09T20:29:35.064Z,40.54
2023-08-09T20:32:01.929Z,40.71
2023-08-09T20:34:29.220Z,40.37
2023-08-09T20:36:56.049Z,40.25
2023-08-09T20:39:22.730Z,40.30
2023-08-09T20:41:49.448Z,40.66
2023-08-09T20:44:16.119Z,40.35
2023-08-09T20:46:42.943Z,40.48
2023-08-09T20:49:10.579Z,40.28
2023-08-09T20:51:37.836Z,39.98
2023-08-09T20:54:05.393Z,40.53
2023-08-09T20:56:32.488Z,40.15
2023-08-09T20:59:00.084Z,39.87
2023-08-09T21:01:27.493Z,40.25
2023-08-09T21:03:54.310Z,39.55
2023-08-09T21:06:21.828Z,40.20
2023-08-09T21:08:48.524Z,40.07
2023-08-09T21:11:15.224Z,40.05
2023-08-09T21:13:41.873Z,39.74
2023-08-09T21:16:08.595Z,39.68
2023-08-09T21:18:37.202Z,39.96
2023-08-09T21:21:04.232Z,39.57
2023-08-09T21:26:01.821Z,39.58
2023-08-09T21:28:28.517Z,39.71
2023-08-09T21:30:56.426Z,39.97
2023-08-09T21:33:24.214Z,40.39
2023-08-09T21:35:51.389Z,39.40
2023-08-09T21:38:18.215Z,39.99
2023-08-09T21:40:45.184Z,39.93
2023-08-09T21:43:12.366Z,39.38
2023-08-09T21:45:39.083Z,39.78
2023-08-09T21:48:06.162Z,39.40
2023-08-09T21:50:32.923Z,39.27
2023-08-09T21:52:59.598Z,40.11
2023-08-09T21:55:26.353Z,39.65
2023-08-09T21:57:52.996Z,39.86
2023-08-09T22:00:20.514Z,39.27
2023-08-09T22:02:47.337Z,38.94
2023-08-09T22:05:14.088Z,39.95
2023-08-09T22:07:40.753Z,39.53
2023-08-09T22:10:08.002Z,39.94
2023-08-09T22:12:34.667Z,39.00
2023-08-09T22:15:01.312Z,39.16
2023-08-09T22:17:28.342Z,38.98
2023-08-09T22:19:55.093Z,39.23
2023-08-09T22:22:22.058Z,38.86
2023-08-09T22:24:48.926Z,38.94
2023-08-09T22:27:15.630Z,38.74
2023-08-09T22:29:42.313Z,39.71
2023-08-09T22:32:08.976Z,39.34
2023-08-09T22:34:35.674Z,38.67
2023-08-09T22:37:02.338Z,39.67
2023-08-09T22:39:28.989Z,38.95
2023-08-09T22:41:55.796Z,38.69
2023-08-09T22:44:22.632Z,38.86
2023-08-09T22:46:49.285Z,39.08
2023-08-09T22:49:15.945Z,39.63
2023-08-09T22:51:43.297Z,38.58
2023-08-09T22:54:10.817Z,39.10
2023-08-09T22:56:37.522Z,38.65
2023-08-09T22:59:04.305Z,39.09
2023-08-09T23:01:30.965Z,38.95
2023-08-09T23:03:57.715Z,39.13
2023-08-09T23:06:24.644Z,39.24
2023-08-09T23:08:51.382Z,38.33
2023-08-09T23:11:18.025Z,39.03
2023-08-09T23:13:44.713Z,38.85
2023-08-09T23:16:11.463Z,38.13
2023-08-09T23:18:39.090Z,38.31
2023-08-09T23:21:06.487Z,38.09
2023-08-09T23:23:33.448Z,38.72
2023-08-09T23:26:01.202Z,38.81
2023-08-09T23:28:29.199Z,38.88
2023-08-09T23:30:58.098Z,38.75
2023-08-09T23:33:24.812Z,39.06
2023-08-09T23:35:51.491Z,38.36
2023-08-09T23:38:18.140Z,39.00
2023-08-09T23:40:45.175Z,38.98
2023-08-09T23:43:12.555Z,38.11
2023-08-09T23:45:39.279Z,38.55
2023-08-09T23:48:06.473Z,38.07
2023-08-09T23:50:33.206Z,38.54
2023-08-09T23:52:59.940Z,38.04
2023-08-09T23:55:26.677Z,37.85
2023-08-09T23:57:53.376Z,38.56
